SE Lincoln WX Station Historical Data
 
Daily Summary for October 19, 2019 Units:  English    Metric   Both
Daily Weekly Monthly Yearly Custom
  Current: High: Low: Average:
Temperature: 58.5 °F 62.3 °F 48.2 °F 53.5 °F
Dew Point: 47.2 °F 51.7 °F 45.9 °F 48.8 °F
Humidity: 66% 93% 56.2% 85%
Wind Speed: 0mph 0.3mph 0mph 0mph
Wind Gust: 0mph 3mph - -
WindCalm - - NW
Pressure: 29.81 in 29.81 in 29.67 in -
Precipitation: 0.17 in      
Historical Graphs
 
 
Tabular Data for October 19, 2019
Time Temperature Dew Point Pressure Wind Wind Speed Wind Gust Humidity Rainfall Rate (Hourly) solar
00:04 61.7 °F 47.7 °F 29.67 in Calm     60% 0.00 in 0 W/m2
00:09 61.8 °F 47 °F 29.67 in Calm   1 mph 58.2% 0.00 in 0 W/m2
00:14 61.9 °F 46.6 °F 29.68 in Calm     57.2% 0.00 in 0 W/m2
00:19 62.1 °F 46.3 °F 29.68 in Calm     56.2% 0.00 in 0 W/m2
00:24 62.2 °F 46.4 °F 29.69 in Calm     56.2% 0.00 in 0 W/m2
00:29 62.2 °F 46.7 °F 29.68 in Calm     56.7% 0.00 in 0 W/m2
00:34 62.3 °F 46.9 °F 29.68 in Calm     56.9% 0.00 in 0 W/m2
00:39 62.3 °F 46.5 °F 29.69 in Calm     56.2% 0.00 in 0 W/m2
00:44 62.3 °F 46.7 °F 29.69 in Calm     56.6% 0.00 in 0 W/m2
00:49 62.3 °F 46.7 °F 29.70 in Calm     56.6% 0.00 in 0 W/m2
00:54 62.2 °F 47.1 °F 29.70 in Calm     57.7% 0.00 in 0 W/m2
00:59 62.2 °F 48.2 °F 29.70 in Calm     60.1% 0.00 in 0 W/m2
01:04 62 °F 49.6 °F 29.70 in Calm     63.8% 0.01 in 0 W/m2
01:09 61.6 °F 50.9 °F 29.70 in Calm     68.1% 0.02 in 0 W/m2
01:14 60.8 °F 51.3 °F 29.70 in Calm     70.8% 0.03 in 0 W/m2
01:19 60.1 °F 51.6 °F 29.70 in Calm     73.4% 0.05 in 0 W/m2
01:24 59.3 °F 51.7 °F 29.69 in Calm     76% 0.07 in 0 W/m2
01:29 58 °F 51.4 °F 29.67 in Calm     78.6% 0.10 in 0 W/m2
01:34 56.9 °F 51.1 °F 29.68 in Calm     80.9% 0.12 in 0 W/m2
01:39 56.4 °F 51.2 °F 29.68 in NW 0.1 mph 3 mph 82.7% 0.13 in 0 W/m2
01:44 55.8 °F 51 °F 29.67 in NNW 0.3 mph 3 mph 83.7% 0.13 in 0 W/m2
01:49 55.3 °F 50.7 °F 29.67 in Calm   1 mph 84.4% 0.14 in 0 W/m2
01:54 54.8 °F 50.5 °F 29.67 in WNW 0.2 mph 2 mph 85.1% 0.15 in 0 W/m2
01:59 54.5 °F 50.4 °F 29.67 in NW 0.1 mph 2 mph 86% 0.15 in 0 W/m2
02:04 54.3 °F 50.3 °F 29.68 in Calm     86.3% 0.16 in 0 W/m2
02:09 54.1 °F 50.3 °F 29.68 in Calm     87% 0.15 in 0 W/m2
02:14 54 °F 50.2 °F 29.68 in Calm     87% 0.14 in 0 W/m2
02:19 53.9 °F 50.2 °F 29.69 in Calm     87.1% 0.13 in 0 W/m2
02:24 53.8 °F 50.4 °F 29.70 in Calm     88% 0.12 in 0 W/m2
02:29 53.7 °F 50.3 °F 29.69 in Calm     88% 0.10 in 0 W/m2
02:34 53.6 °F 50.1 °F 29.70 in Calm     88% 0.07 in 0 W/m2
02:39 53.4 °F 50 °F 29.70 in Calm     88% 0.05 in 0 W/m2
02:44 53.3 °F 50.2 °F 29.70 in Calm     89% 0.04 in 0 W/m2
02:49 53.3 °F 50.1 °F 29.70 in Calm     89% 0.04 in 0 W/m2
02:54 53.2 °F 50.1 °F 29.70 in Calm     89% 0.03 in 0 W/m2
02:59 53.1 °F 50 °F 29.70 in Calm     89% 0.02 in 0 W/m2
03:04 53.1 °F 50 °F 29.70 in Calm     89% 0.02 in 0 W/m2
03:09 53 °F 49.9 °F 29.72 in Calm     89.3% 0.01 in 0 W/m2
03:14 53 °F 50.1 °F 29.72 in Calm     90% 0.01 in 0 W/m2
03:19 52.9 °F 50.1 °F 29.72 in Calm     90% 0.01 in 0 W/m2
03:24 52.8 °F 50 °F 29.72 in Calm     90% 0.01 in 0 W/m2
03:29 52.8 °F 50 °F 29.72 in Calm     90% 0.01 in 0 W/m2
03:34 52.8 °F 50.1 °F 29.72 in Calm     90.5% 0.01 in 0 W/m2
03:39 52.8 °F 50.3 °F 29.72 in Calm     91% 0.01 in 0 W/m2
03:44 52.8 °F 50.3 °F 29.71 in Calm     91% 0.01 in 0 W/m2
03:49 52.8 °F 50.2 °F 29.70 in Calm     91% 0.00 in 0 W/m2
03:54 52.7 °F 50.2 °F 29.70 in Calm     91% 0.00 in 0 W/m2
03:59 52.7 °F 50.1 °F 29.69 in Calm     91% 0.00 in 0 W/m2
04:04 52.6 °F 50 °F 29.69 in Calm     91% 0.00 in 0 W/m2
04:09 52.5 °F 50 °F 29.70 in Calm     91% 0.00 in 0 W/m2
04:14 52.4 °F 49.9 °F 29.71 in Calm     91% 0.00 in 0 W/m2
04:19 52.4 °F 49.8 °F 29.72 in Calm     91% 0.00 in 0 W/m2
04:24 52.3 °F 49.8 °F 29.72 in Calm     91% 0.00 in 0 W/m2
04:29 52.2 °F 49.7 °F 29.72 in Calm     91% 0.00 in 0 W/m2
04:34 52.2 °F 49.6 °F 29.72 in Calm     91% 0.00 in 0 W/m2
04:39 52.1 °F 49.6 °F 29.72 in Calm     91% 0.00 in 0 W/m2
04:44 52.1 °F 49.6 °F 29.72 in Calm     91.4% 0.00 in 0 W/m2
04:49 52 °F 49.5 °F 29.72 in Calm     91.2% 0.00 in 0 W/m2
04:54 52 °F 49.8 °F 29.72 in Calm     92% 0.00 in 0 W/m2
04:59 52 °F 49.8 °F 29.72 in Calm     92% 0.00 in 0 W/m2
05:04 52 °F 49.7 °F 29.72 in Calm     92% 0.00 in 0 W/m2
05:09 51.9 °F 49.7 °F 29.72 in Calm     92% 0.00 in 0 W/m2
05:14 51.9 °F 49.6 °F 29.72 in Calm     92% 0.00 in 0 W/m2
05:19 51.8 °F 49.5 °F 29.73 in Calm     92% 0.00 in 0 W/m2
05:24 51.6 °F 49.4 °F 29.73 in Calm     92% 0.00 in 0 W/m2
05:29 51.5 °F 49.2 °F 29.74 in Calm     92% 0.00 in 0 W/m2
05:34 51.4 °F 49.1 °F 29.74 in Calm     92% 0.00 in 0 W/m2
05:39 51.2 °F 49 °F 29.75 in Calm     92% 0.00 in 0 W/m2
05:44 51.2 °F 48.9 °F 29.74 in Calm     92% 0.00 in 0 W/m2
05:49 51 °F 48.8 °F 29.75 in Calm     92% 0.00 in 0 W/m2
05:54 51 °F 48.8 °F 29.75 in Calm     92% 0.00 in 0 W/m2
05:59 50.9 °F 48.7 °F 29.74 in Calm     92% 0.00 in 0 W/m2
06:04 50.9 °F 48.6 °F 29.74 in Calm     92% 0.00 in 0 W/m2
06:09 50.8 °F 48.6 °F 29.75 in Calm     92% 0.00 in 0 W/m2
06:14 50.8 °F 48.6 °F 29.75 in Calm     92% 0.00 in 0 W/m2
06:19 50.7 °F 48.5 °F 29.75 in Calm     92% 0.00 in 0 W/m2
06:24 50.7 °F 48.5 °F 29.75 in Calm     92% 0.00 in 0 W/m2
06:29 50.7 °F 48.5 °F 29.75 in Calm     92% 0.00 in 0 W/m2
06:34 50.6 °F 48.4 °F 29.75 in Calm     92% 0.00 in 0 W/m2
06:39 50.6 °F 48.4 °F 29.75 in Calm     92% 0.00 in 0 W/m2
06:44 50.5 °F 48.3 °F 29.75 in Calm     92% 0.00 in 0 W/m2
06:49 50.5 °F 48.3 °F 29.75 in Calm     92% 0.00 in 0 W/m2
06:54 50.4 °F 48.2 °F 29.75 in Calm     92% 0.00 in 0 W/m2
06:59 50.4 °F 48.1 °F 29.75 in Calm     92% 0.00 in 0 W/m2
07:04 50.3 °F 48.1 °F 29.75 in Calm     92% 0.00 in 0 W/m2
07:09 50.2 °F 48 °F 29.75 in Calm     92% 0.00 in 0 W/m2
07:14 50.1 °F 47.9 °F 29.76 in Calm     92% 0.00 in 0 W/m2
07:19 50 °F 47.7 °F 29.76 in Calm     91.9% 0.00 in 0 W/m2
07:24 49.8 °F 47.4 °F 29.76 in Calm     91.2% 0.00 in 0 W/m2
07:29 49.7 °F 47.3 °F 29.76 in Calm     91.5% 0.00 in 0 W/m2
07:34 49.6 °F 47.2 °F 29.76 in Calm     91.4% 0.00 in 0 W/m2
07:39 49.3 °F 46.8 °F 29.76 in Calm     91% 0.00 in 0 W/m2
07:44 49.2 °F 46.7 °F 29.76 in Calm     91% 0.00 in 0 W/m2
07:49 49 °F 46.5 °F 29.77 in Calm     91% 0.00 in 5 W/m2
07:54 48.8 °F 46.3 °F 29.77 in Calm     91% 0.00 in 7 W/m2
07:59 48.7 °F 46.2 °F 29.77 in Calm     91% 0.00 in 11 W/m2
08:04 48.5 °F 46 °F 29.77 in Calm     91% 0.00 in 12 W/m2
08:09 48.4 °F 45.9 °F 29.77 in Calm     91% 0.00 in 16 W/m2
08:14 48.3 °F 46 °F 29.78 in Calm   1 mph 91.6% 0.00 in 35 W/m2
08:19 48.2 °F 46 °F 29.78 in Calm     92% 0.00 in 49 W/m2
08:24 48.3 °F 46.1 °F 29.79 in Calm     92% 0.00 in 60 W/m2
08:29 48.3 °F 46.1 °F 29.79 in Calm     92% 0.00 in 72 W/m2
08:34 48.5 °F 46.3 °F 29.79 in Calm     92% 0.00 in 88 W/m2
08:39 48.8 °F 46.6 °F 29.79 in Calm     92.4% 0.00 in 100 W/m2
08:44 49 °F 46.8 °F 29.79 in Calm   1 mph 92% 0.00 in 116 W/m2
08:49 49.2 °F 47.3 °F 29.80 in Calm   1 mph 92.9% 0.00 in 130 W/m2
08:54 49.5 °F 47.5 °F 29.80 in Calm     92.9% 0.00 in 146 W/m2
08:59 49.8 °F 47.8 °F 29.80 in Calm     93% 0.00 in 158 W/m2
09:04 50.2 °F 48.2 °F 29.80 in Calm     92.7% 0.00 in 178 W/m2
09:09 50.5 °F 48.3 °F 29.80 in Calm     92% 0.00 in 195 W/m2
09:14 51 °F 48.7 °F 29.80 in Calm     92% 0.00 in 209 W/m2
09:19 51.4 °F 48.8 °F 29.80 in Calm     90.7% 0.00 in 227 W/m2
09:24 51.8 °F 48.8 °F 29.80 in Calm     89.6% 0.00 in 244 W/m2
09:29 52.3 °F 49 °F 29.80 in Calm     88.7% 0.00 in 260 W/m2
09:34 52.8 °F 49 °F 29.80 in Calm     87% 0.00 in 276 W/m2
09:39 53.2 °F 49 °F 29.80 in Calm     85.5% 0.00 in 288 W/m2
09:44 53.8 °F 48.8 °F 29.80 in WNW 0.2 mph 3 mph 83.2% 0.00 in 302 W/m2
09:49 54.3 °F 48.7 °F 29.80 in Calm   2 mph 81.4% 0.00 in 313 W/m2
09:54 54.9 °F 48.9 °F 29.81 in Calm   1 mph 80.2% 0.00 in 327 W/m2
09:59 55.5 °F 49.2 °F 29.81 in Calm   1 mph 79.3% 0.00 in 338 W/m2
10:04 56.1 °F 49.2 °F 29.81 in Calm   1 mph 77.5% 0.00 in 352 W/m2
10:09 56.7 °F 48.8 °F 29.81 in Calm     74.8% 0.00 in 366 W/m2
10:14 57.1 °F 48.6 °F 29.81 in Calm     73.2% 0.00 in 376 W/m2
10:19 57.6 °F 48.9 °F 29.81 in Calm     72.8% 0.00 in 390 W/m2
10:24 57.8 °F 48.3 °F 29.81 in Calm     70.4% 0.00 in 403 W/m2
10:29 58 °F 48.3 °F 29.81 in Calm     70% 0.00 in 415 W/m2
10:34 58.4 °F 48.2 °F 29.81 in Calm     68.9% 0.00 in 427 W/m2
10:39 58.5 °F 47.4 °F 29.81 in Calm     66.5% 0.00 in 438 W/m2
10:40 58.5 °F 47.2 °F 29.81 in Calm     66% 0.00 in 438 W/m2
66th and South
Compliments of Weather Underground - 4 mb